sensor_id;sensor_type;location;lat;lon;timestamp;P1;durP1;ratioP1;P2;durP2;ratioP2
13933;SDS011;7039;52.168;9.866;2023-06-22T00:00:58;10.30;;;8.00;;
13933;SDS011;7039;52.168;9.866;2023-06-22T00:03:25;9.33;;;8.30;;
13933;SDS011;7039;52.168;9.866;2023-06-22T00:05:52;15.23;;;8.87;;
13933;SDS011;7039;52.168;9.866;2023-06-22T00:08:19;10.20;;;8.70;;
13933;SDS011;7039;52.168;9.866;2023-06-22T00:10:46;13.83;;;8.93;;
13933;SDS011;7039;52.168;9.866;2023-06-22T00:13:13;12.30;;;8.57;;
13933;SDS011;7039;52.168;9.866;2023-06-22T00:15:40;12.10;;;9.27;;
13933;SDS011;7039;52.168;9.866;2023-06-22T00:18:08;10.63;;;9.17;;
13933;SDS011;7039;52.168;9.866;2023-06-22T00:20:36;13.03;;;9.63;;
13933;SDS011;7039;52.168;9.866;2023-06-22T00:23:03;11.53;;;8.90;;
13933;SDS011;7039;52.168;9.866;2023-06-22T00:25:33;14.97;;;9.03;;
13933;SDS011;7039;52.168;9.866;2023-06-22T00:27:59;10.40;;;8.50;;
13933;SDS011;7039;52.168;9.866;2023-06-22T00:30:27;10.70;;;7.53;;
13933;SDS011;7039;52.168;9.866;2023-06-22T00:32:53;11.07;;;8.20;;
13933;SDS011;7039;52.168;9.866;2023-06-22T00:35:20;9.37;;;8.10;;
13933;SDS011;7039;52.168;9.866;2023-06-22T00:37:47;13.77;;;8.57;;
13933;SDS011;7039;52.168;9.866;2023-06-22T00:40:13;9.73;;;8.33;;
13933;SDS011;7039;52.168;9.866;2023-06-22T00:42:40;13.47;;;8.77;;
13933;SDS011;7039;52.168;9.866;2023-06-22T00:45:07;10.67;;;8.90;;
13933;SDS011;7039;52.168;9.866;2023-06-22T00:47:35;11.17;;;8.77;;
13933;SDS011;7039;52.168;9.866;2023-06-22T00:50:04;12.33;;;8.70;;
13933;SDS011;7039;52.168;9.866;2023-06-22T00:52:33;12.67;;;9.33;;
13933;SDS011;7039;52.168;9.866;2023-06-22T00:55:00;13.53;;;8.33;;
13933;SDS011;7039;52.168;9.866;2023-06-22T00:57:28;11.57;;;8.93;;
13933;SDS011;7039;52.168;9.866;2023-06-22T00:59:54;12.00;;;8.30;;
13933;SDS011;7039;52.168;9.866;2023-06-22T01:02:21;16.60;;;8.77;;
13933;SDS011;7039;52.168;9.866;2023-06-22T01:04:49;9.67;;;8.60;;
13933;SDS011;7039;52.168;9.866;2023-06-22T01:07:17;11.77;;;8.07;;
13933;SDS011;7039;52.168;9.866;2023-06-22T01:09:51;10.30;;;9.20;;
13933;SDS011;7039;52.168;9.866;2023-06-22T01:12:23;10.40;;;8.27;;
13933;SDS011;7039;52.168;9.866;2023-06-22T01:14:54;13.50;;;9.37;;
13933;SDS011;7039;52.168;9.866;2023-06-22T01:17:24;12.17;;;9.03;;
13933;SDS011;7039;52.168;9.866;2023-06-22T01:19:54;15.63;;;10.97;;
13933;SDS011;7039;52.168;9.866;2023-06-22T01:22:22;19.67;;;9.93;;
13933;SDS011;7039;52.168;9.866;2023-06-22T01:24:55;11.73;;;9.73;;
13933;SDS011;7039;52.168;9.866;2023-06-22T01:27:32;17.33;;;10.47;;
13933;SDS011;7039;52.168;9.866;2023-06-22T01:30:08;16.60;;;11.50;;
13933;SDS011;7039;52.168;9.866;2023-06-22T01:32:36;15.83;;;10.60;;
13933;SDS011;7039;52.168;9.866;2023-06-22T01:35:05;19.30;;;11.33;;
13933;SDS011;7039;52.168;9.866;2023-06-22T01:37:33;17.47;;;10.10;;
13933;SDS011;7039;52.168;9.866;2023-06-22T01:40:01;12.47;;;9.57;;
13933;SDS011;7039;52.168;9.866;2023-06-22T01:42:29;16.07;;;11.27;;
13933;SDS011;7039;52.168;9.866;2023-06-22T01:44:56;15.53;;;10.33;;
13933;SDS011;7039;52.168;9.866;2023-06-22T01:47:25;15.50;;;10.57;;
13933;SDS011;7039;52.168;9.866;2023-06-22T01:49:53;21.93;;;12.07;;
13933;SDS011;7039;52.168;9.866;2023-06-22T01:52:20;16.43;;;10.50;;
13933;SDS011;7039;52.168;9.866;2023-06-22T01:54:47;17.33;;;11.00;;
13933;SDS011;7039;52.168;9.866;2023-06-22T01:57:14;16.87;;;12.40;;
13933;SDS011;7039;52.168;9.866;2023-06-22T01:59:42;13.77;;;10.60;;
13933;SDS011;7039;52.168;9.866;2023-06-22T02:02:15;16.90;;;11.23;;
13933;SDS011;7039;52.168;9.866;2023-06-22T02:04:48;15.97;;;10.83;;
13933;SDS011;7039;52.168;9.866;2023-06-22T02:07:18;18.03;;;10.57;;
13933;SDS011;7039;52.168;9.866;2023-06-22T02:09:49;16.17;;;10.57;;
13933;SDS011;7039;52.168;9.866;2023-06-22T02:12:21;13.87;;;10.53;;
13933;SDS011;7039;52.168;9.866;2023-06-22T02:14:50;20.23;;;10.93;;
13933;SDS011;7039;52.168;9.866;2023-06-22T02:17:18;18.97;;;12.07;;
13933;SDS011;7039;52.168;9.866;2023-06-22T02:19:46;16.87;;;10.97;;
13933;SDS011;7039;52.168;9.866;2023-06-22T02:22:12;15.80;;;9.57;;
13933;SDS011;7039;52.168;9.866;2023-06-22T02:24:39;19.73;;;10.77;;
13933;SDS011;7039;52.168;9.866;2023-06-22T02:27:06;18.13;;;11.40;;
13933;SDS011;7039;52.168;9.866;2023-06-22T02:29:33;19.43;;;11.13;;
13933;SDS011;7039;52.168;9.866;2023-06-22T02:31:59;20.93;;;10.33;;
13933;SDS011;7039;52.168;9.866;2023-06-22T02:34:25;16.37;;;10.47;;
13933;SDS011;7039;52.168;9.866;2023-06-22T02:36:53;12.73;;;10.53;;
13933;SDS011;7039;52.168;9.866;2023-06-22T02:39:20;18.43;;;11.40;;
13933;SDS011;7039;52.168;9.866;2023-06-22T02:41:48;24.40;;;11.87;;
13933;SDS011;7039;52.168;9.866;2023-06-22T02:44:15;15.13;;;10.90;;
13933;SDS011;7039;52.168;9.866;2023-06-22T02:46:42;15.47;;;11.10;;
13933;SDS011;7039;52.168;9.866;2023-06-22T02:49:09;18.87;;;9.80;;
13933;SDS011;7039;52.168;9.866;2023-06-22T02:51:37;14.40;;;10.40;;
13933;SDS011;7039;52.168;9.866;2023-06-22T02:54:06;19.47;;;11.20;;
13933;SDS011;7039;52.168;9.866;2023-06-22T02:56:32;17.60;;;10.67;;
13933;SDS011;7039;52.168;9.866;2023-06-22T02:59:01;21.17;;;11.33;;
13933;SDS011;7039;52.168;9.866;2023-06-22T03:01:28;16.13;;;11.47;;
13933;SDS011;7039;52.168;9.866;2023-06-22T03:03:55;18.83;;;10.83;;
13933;SDS011;7039;52.168;9.866;2023-06-22T03:06:22;16.30;;;11.33;;
13933;SDS011;7039;52.168;9.866;2023-06-22T03:08:53;19.30;;;11.17;;
13933;SDS011;7039;52.168;9.866;2023-06-22T03:11:23;17.63;;;11.30;;
13933;SDS011;7039;52.168;9.866;2023-06-22T03:13:50;18.13;;;12.50;;
13933;SDS011;7039;52.168;9.866;2023-06-22T03:16:17;16.13;;;11.23;;
13933;SDS011;7039;52.168;9.866;2023-06-22T03:18:43;15.93;;;10.50;;
13933;SDS011;7039;52.168;9.866;2023-06-22T03:21:10;18.63;;;10.67;;
13933;SDS011;7039;52.168;9.866;2023-06-22T03:23:36;22.00;;;11.20;;
13933;SDS011;7039;52.168;9.866;2023-06-22T03:26:03;17.30;;;11.17;;
13933;SDS011;7039;52.168;9.866;2023-06-22T03:28:31;19.33;;;10.93;;
13933;SDS011;7039;52.168;9.866;2023-06-22T03:30:57;17.80;;;10.93;;
13933;SDS011;7039;52.168;9.866;2023-06-22T03:33:24;16.97;;;11.53;;
13933;SDS011;7039;52.168;9.866;2023-06-22T03:35:50;21.63;;;10.77;;
13933;SDS011;7039;52.168;9.866;2023-06-22T03:38:18;16.73;;;11.00;;
13933;SDS011;7039;52.168;9.866;2023-06-22T03:40:45;21.63;;;12.30;;
13933;SDS011;7039;52.168;9.866;2023-06-22T03:43:11;18.73;;;10.63;;
13933;SDS011;7039;52.168;9.866;2023-06-22T03:45:39;18.13;;;10.60;;
13933;SDS011;7039;52.168;9.866;2023-06-22T03:48:06;16.50;;;10.37;;
13933;SDS011;7039;52.168;9.866;2023-06-22T03:50:32;20.50;;;10.10;;
13933;SDS011;7039;52.168;9.866;2023-06-22T03:52:59;15.73;;;11.10;;
13933;SDS011;7039;52.168;9.866;2023-06-22T03:55:25;21.63;;;10.80;;
13933;SDS011;7039;52.168;9.866;2023-06-22T03:57:51;24.43;;;11.13;;
13933;SDS011;7039;52.168;9.866;2023-06-22T04:00:19;18.37;;;12.23;;
13933;SDS011;7039;52.168;9.866;2023-06-22T04:02:47;20.37;;;11.50;;
13933;SDS011;7039;52.168;9.866;2023-06-22T04:05:13;18.23;;;11.17;;
13933;SDS011;7039;52.168;9.866;2023-06-22T04:07:40;22.47;;;10.77;;
13933;SDS011;7039;52.168;9.866;2023-06-22T04:10:07;18.53;;;11.03;;
13933;SDS011;7039;52.168;9.866;2023-06-22T04:12:33;17.13;;;11.27;;
13933;SDS011;7039;52.168;9.866;2023-06-22T04:15:00;21.47;;;12.50;;
13933;SDS011;7039;52.168;9.866;2023-06-22T04:17:26;16.50;;;11.23;;
13933;SDS011;7039;52.168;9.866;2023-06-22T04:19:54;16.13;;;11.10;;
13933;SDS011;7039;52.168;9.866;2023-06-22T04:22:21;17.00;;;12.63;;
13933;SDS011;7039;52.168;9.866;2023-06-22T04:24:47;21.07;;;12.43;;
13933;SDS011;7039;52.168;9.866;2023-06-22T04:27:16;16.33;;;11.10;;
13933;SDS011;7039;52.168;9.866;2023-06-22T04:29:44;19.93;;;12.30;;
13933;SDS011;7039;52.168;9.866;2023-06-22T04:32:13;19.90;;;12.27;;
13933;SDS011;7039;52.168;9.866;2023-06-22T04:34:40;20.13;;;12.20;;
13933;SDS011;7039;52.168;9.866;2023-06-22T04:37:08;16.83;;;11.73;;
13933;SDS011;7039;52.168;9.866;2023-06-22T04:39:38;19.10;;;12.13;;
13933;SDS011;7039;52.168;9.866;2023-06-22T04:42:04;20.23;;;12.47;;
13933;SDS011;7039;52.168;9.866;2023-06-22T04:44:31;17.90;;;11.97;;
13933;SDS011;7039;52.168;9.866;2023-06-22T04:46:58;16.07;;;11.60;;
13933;SDS011;7039;52.168;9.866;2023-06-22T04:49:27;17.23;;;11.03;;
13933;SDS011;7039;52.168;9.866;2023-06-22T04:51:57;15.87;;;11.87;;
13933;SDS011;7039;52.168;9.866;2023-06-22T04:54:26;19.70;;;13.67;;
13933;SDS011;7039;52.168;9.866;2023-06-22T04:56:52;16.70;;;13.30;;
13933;SDS011;7039;52.168;9.866;2023-06-22T04:59:21;16.73;;;12.37;;
13933;SDS011;7039;52.168;9.866;2023-06-22T05:01:48;19.13;;;14.03;;
13933;SDS011;7039;52.168;9.866;2023-06-22T05:04:16;21.93;;;13.93;;
13933;SDS011;7039;52.168;9.866;2023-06-22T05:06:43;18.80;;;14.97;;
13933;SDS011;7039;52.168;9.866;2023-06-22T05:09:10;14.27;;;12.77;;
13933;SDS011;7039;52.168;9.866;2023-06-22T05:11:38;18.67;;;14.77;;
13933;SDS011;7039;52.168;9.866;2023-06-22T05:14:05;15.70;;;12.50;;
13933;SDS011;7039;52.168;9.866;2023-06-22T05:16:32;17.97;;;13.93;;
13933;SDS011;7039;52.168;9.866;2023-06-22T05:18:59;17.17;;;12.83;;
13933;SDS011;7039;52.168;9.866;2023-06-22T05:21:28;15.13;;;12.40;;
13933;SDS011;7039;52.168;9.866;2023-06-22T05:23:56;27.13;;;14.20;;
13933;SDS011;7039;52.168;9.866;2023-06-22T05:26:25;14.57;;;11.47;;
13933;SDS011;7039;52.168;9.866;2023-06-22T05:28:56;13.93;;;11.70;;
13933;SDS011;7039;52.168;9.866;2023-06-22T05:31:23;15.83;;;11.60;;
13933;SDS011;7039;52.168;9.866;2023-06-22T05:33:51;15.07;;;12.20;;
13933;SDS011;7039;52.168;9.866;2023-06-22T05:36:19;15.53;;;12.77;;
13933;SDS011;7039;52.168;9.866;2023-06-22T05:38:46;16.63;;;12.40;;
13933;SDS011;7039;52.168;9.866;2023-06-22T05:41:13;18.58;;;13.05;;
13933;SDS011;7039;52.168;9.866;2023-06-22T05:43:40;16.30;;;12.27;;
13933;SDS011;7039;52.168;9.866;2023-06-22T05:46:07;20.00;;;13.13;;
13933;SDS011;7039;52.168;9.866;2023-06-22T05:48:34;18.20;;;13.43;;
13933;SDS011;7039;52.168;9.866;2023-06-22T05:51:01;15.00;;;12.90;;
13933;SDS011;7039;52.168;9.866;2023-06-22T05:53:27;14.70;;;11.93;;
13933;SDS011;7039;52.168;9.866;2023-06-22T05:55:54;18.03;;;12.83;;
13933;SDS011;7039;52.168;9.866;2023-06-22T05:58:20;21.70;;;17.10;;
13933;SDS011;7039;52.168;9.866;2023-06-22T06:00:47;19.70;;;14.93;;
13933;SDS011;7039;52.168;9.866;2023-06-22T06:03:14;16.07;;;13.87;;
13933;SDS011;7039;52.168;9.866;2023-06-22T06:05:42;21.93;;;17.57;;
13933;SDS011;7039;52.168;9.866;2023-06-22T06:08:09;21.63;;;18.07;;
13933;SDS011;7039;52.168;9.866;2023-06-22T06:10:36;20.47;;;18.03;;
13933;SDS011;7039;52.168;9.866;2023-06-22T06:13:03;20.98;;;16.60;;
13933;SDS011;7039;52.168;9.866;2023-06-22T06:15:29;24.67;;;17.87;;
13933;SDS011;7039;52.168;9.866;2023-06-22T06:17:56;18.77;;;14.60;;
13933;SDS011;7039;52.168;9.866;2023-06-22T06:20:25;20.83;;;17.47;;
13933;SDS011;7039;52.168;9.866;2023-06-22T06:22:53;19.73;;;15.50;;
13933;SDS011;7039;52.168;9.866;2023-06-22T06:25:19;20.52;;;15.13;;
13933;SDS011;7039;52.168;9.866;2023-06-22T06:27:47;19.50;;;15.45;;
13933;SDS011;7039;52.168;9.866;2023-06-22T06:30:15;17.67;;;14.35;;
13933;SDS011;7039;52.168;9.866;2023-06-22T06:32:42;22.85;;;15.77;;
13933;SDS011;7039;52.168;9.866;2023-06-22T06:35:10;18.02;;;14.80;;
13933;SDS011;7039;52.168;9.866;2023-06-22T06:37:40;20.52;;;15.27;;
13933;SDS011;7039;52.168;9.866;2023-06-22T06:40:08;24.77;;;15.68;;
13933;SDS011;7039;52.168;9.866;2023-06-22T06:42:36;23.55;;;16.05;;
13933;SDS011;7039;52.168;9.866;2023-06-22T06:45:05;23.35;;;16.08;;
13933;SDS011;7039;52.168;9.866;2023-06-22T06:47:32;19.85;;;14.88;;
13933;SDS011;7039;52.168;9.866;2023-06-22T06:49:59;19.52;;;15.70;;
13933;SDS011;7039;52.168;9.866;2023-06-22T06:52:25;18.95;;;14.18;;
13933;SDS011;7039;52.168;9.866;2023-06-22T06:54:53;18.95;;;14.48;;
13933;SDS011;7039;52.168;9.866;2023-06-22T06:57:20;20.48;;;13.18;;
13933;SDS011;7039;52.168;9.866;2023-06-22T06:59:47;19.63;;;13.45;;
13933;SDS011;7039;52.168;9.866;2023-06-22T07:02:14;20.13;;;13.90;;
13933;SDS011;7039;52.168;9.866;2023-06-22T07:04:40;21.67;;;13.60;;
13933;SDS011;7039;52.168;9.866;2023-06-22T07:07:07;17.05;;;13.05;;
13933;SDS011;7039;52.168;9.866;2023-06-22T07:09:33;18.63;;;11.98;;
13933;SDS011;7039;52.168;9.866;2023-06-22T07:12:01;22.17;;;11.75;;
13933;SDS011;7039;52.168;9.866;2023-06-22T07:14:28;16.20;;;12.25;;
13933;SDS011;7039;52.168;9.866;2023-06-22T07:16:54;20.38;;;11.50;;
13933;SDS011;7039;52.168;9.866;2023-06-22T07:19:24;16.48;;;10.70;;
13933;SDS011;7039;52.168;9.866;2023-06-22T07:21:51;13.68;;;11.48;;
13933;SDS011;7039;52.168;9.866;2023-06-22T07:24:18;14.48;;;10.60;;
13933;SDS011;7039;52.168;9.866;2023-06-22T07:26:45;18.17;;;12.48;;
13933;SDS011;7039;52.168;9.866;2023-06-22T07:29:14;18.73;;;10.43;;
13933;SDS011;7039;52.168;9.866;2023-06-22T07:31:41;14.05;;;10.77;;
13933;SDS011;7039;52.168;9.866;2023-06-22T07:34:07;12.65;;;10.60;;
13933;SDS011;7039;52.168;9.866;2023-06-22T07:36:34;19.20;;;11.82;;
13933;SDS011;7039;52.168;9.866;2023-06-22T07:39:00;18.13;;;13.45;;
13933;SDS011;7039;52.168;9.866;2023-06-22T07:41:27;15.05;;;12.38;;
13933;SDS011;7039;52.168;9.866;2023-06-22T07:43:54;15.38;;;11.82;;
13933;SDS011;7039;52.168;9.866;2023-06-22T07:46:22;16.92;;;11.90;;
13933;SDS011;7039;52.168;9.866;2023-06-22T07:48:48;18.95;;;12.23;;
13933;SDS011;7039;52.168;9.866;2023-06-22T07:51:15;14.65;;;11.60;;
13933;SDS011;7039;52.168;9.866;2023-06-22T07:53:42;14.35;;;11.75;;
13933;SDS011;7039;52.168;9.866;2023-06-22T07:56:09;18.65;;;10.27;;
13933;SDS011;7039;52.168;9.866;2023-06-22T07:58:36;11.93;;;10.63;;
13933;SDS011;7039;52.168;9.866;2023-06-22T08:01:03;11.93;;;10.50;;
13933;SDS011;7039;52.168;9.866;2023-06-22T08:03:31;18.90;;;11.38;;
13933;SDS011;7039;52.168;9.866;2023-06-22T08:05:57;15.52;;;11.13;;
13933;SDS011;7039;52.168;9.866;2023-06-22T08:08:24;14.30;;;11.30;;
13933;SDS011;7039;52.168;9.866;2023-06-22T08:10:50;15.43;;;11.82;;
13933;SDS011;7039;52.168;9.866;2023-06-22T08:13:17;14.45;;;10.68;;
13933;SDS011;7039;52.168;9.866;2023-06-22T08:15:44;12.73;;;11.43;;
13933;SDS011;7039;52.168;9.866;2023-06-22T08:18:11;15.10;;;11.70;;
13933;SDS011;7039;52.168;9.866;2023-06-22T08:20:39;14.60;;;11.15;;
13933;SDS011;7039;52.168;9.866;2023-06-22T08:23:05;12.05;;;10.85;;
13933;SDS011;7039;52.168;9.866;2023-06-22T08:25:32;16.88;;;12.55;;
13933;SDS011;7039;52.168;9.866;2023-06-22T08:27:59;13.68;;;11.57;;
13933;SDS011;7039;52.168;9.866;2023-06-22T08:30:25;14.20;;;11.75;;
13933;SDS011;7039;52.168;9.866;2023-06-22T08:32:52;16.20;;;12.45;;
13933;SDS011;7039;52.168;9.866;2023-06-22T08:35:18;13.68;;;11.02;;
13933;SDS011;7039;52.168;9.866;2023-06-22T08:37:46;14.88;;;10.73;;
13933;SDS011;7039;52.168;9.866;2023-06-22T08:40:16;16.52;;;11.02;;
13933;SDS011;7039;52.168;9.866;2023-06-22T08:42:44;16.58;;;11.45;;
13933;SDS011;7039;52.168;9.866;2023-06-22T08:45:12;13.13;;;11.18;;
13933;SDS011;7039;52.168;9.866;2023-06-22T08:47:39;14.02;;;12.18;;
13933;SDS011;7039;52.168;9.866;2023-06-22T08:50:06;12.68;;;10.95;;
13933;SDS011;7039;52.168;9.866;2023-06-22T08:52:34;15.98;;;10.48;;
13933;SDS011;7039;52.168;9.866;2023-06-22T08:55:02;18.50;;;10.95;;
13933;SDS011;7039;52.168;9.866;2023-06-22T08:57:28;12.48;;;11.07;;
13933;SDS011;7039;52.168;9.866;2023-06-22T08:59:55;15.10;;;10.25;;
13933;SDS011;7039;52.168;9.866;2023-06-22T09:02:23;11.98;;;10.73;;
13933;SDS011;7039;52.168;9.866;2023-06-22T09:04:49;16.35;;;10.60;;
13933;SDS011;7039;52.168;9.866;2023-06-22T09:07:20;11.90;;;9.77;;
13933;SDS011;7039;52.168;9.866;2023-06-22T09:09:48;16.73;;;10.93;;
13933;SDS011;7039;52.168;9.866;2023-06-22T09:12:16;14.57;;;11.50;;
13933;SDS011;7039;52.168;9.866;2023-06-22T09:14:45;12.55;;;9.95;;
13933;SDS011;7039;52.168;9.866;2023-06-22T09:17:12;14.10;;;10.13;;
13933;SDS011;7039;52.168;9.866;2023-06-22T09:19:38;12.30;;;11.00;;
13933;SDS011;7039;52.168;9.866;2023-06-22T09:22:05;20.10;;;10.80;;
13933;SDS011;7039;52.168;9.866;2023-06-22T09:24:32;13.85;;;9.98;;
13933;SDS011;7039;52.168;9.866;2023-06-22T09:26:59;18.30;;;10.65;;
13933;SDS011;7039;52.168;9.866;2023-06-22T09:29:26;13.57;;;9.25;;
13933;SDS011;7039;52.168;9.866;2023-06-22T09:31:53;19.15;;;10.30;;
13933;SDS011;7039;52.168;9.866;2023-06-22T09:34:20;12.20;;;10.95;;
13933;SDS011;7039;52.168;9.866;2023-06-22T09:36:47;13.45;;;9.75;;
13933;SDS011;7039;52.168;9.866;2023-06-22T09:39:14;11.18;;;9.98;;
13933;SDS011;7039;52.168;9.866;2023-06-22T09:41:40;12.80;;;10.40;;
13933;SDS011;7039;52.168;9.866;2023-06-22T09:44:07;14.52;;;10.65;;
13933;SDS011;7039;52.168;9.866;2023-06-22T09:46:34;15.48;;;10.50;;
13933;SDS011;7039;52.168;9.866;2023-06-22T09:49:01;14.23;;;10.65;;
13933;SDS011;7039;52.168;9.866;2023-06-22T09:51:28;12.05;;;10.75;;
13933;SDS011;7039;52.168;9.866;2023-06-22T09:53:54;13.27;;;11.05;;
13933;SDS011;7039;52.168;9.866;2023-06-22T09:56:21;16.50;;;12.63;;
13933;SDS011;7039;52.168;9.866;2023-06-22T09:58:47;17.30;;;11.80;;
13933;SDS011;7039;52.168;9.866;2023-06-22T10:01:17;14.95;;;12.95;;
13933;SDS011;7039;52.168;9.866;2023-06-22T10:03:46;15.05;;;12.05;;
13933;SDS011;7039;52.168;9.866;2023-06-22T10:06:13;14.45;;;12.80;;
13933;SDS011;7039;52.168;9.866;2023-06-22T10:08:40;15.48;;;11.18;;
13933;SDS011;7039;52.168;9.866;2023-06-22T10:11:07;19.75;;;11.73;;
13933;SDS011;7039;52.168;9.866;2023-06-22T10:13:33;14.88;;;12.35;;
13933;SDS011;7039;52.168;9.866;2023-06-22T10:16:00;16.05;;;12.55;;
13933;SDS011;7039;52.168;9.866;2023-06-22T10:18:26;15.82;;;11.95;;
13933;SDS011;7039;52.168;9.866;2023-06-22T10:20:54;15.70;;;12.75;;
13933;SDS011;7039;52.168;9.866;2023-06-22T10:23:20;14.73;;;12.55;;
13933;SDS011;7039;52.168;9.866;2023-06-22T10:25:47;15.38;;;12.20;;
13933;SDS011;7039;52.168;9.866;2023-06-22T10:28:13;28.67;;;12.80;;
13933;SDS011;7039;52.168;9.866;2023-06-22T10:30:40;15.32;;;12.52;;
13933;SDS011;7039;52.168;9.866;2023-06-22T10:33:07;18.13;;;13.70;;
13933;SDS011;7039;52.168;9.866;2023-06-22T10:35:33;25.90;;;13.43;;
13933;SDS011;7039;52.168;9.866;2023-06-22T10:38:01;17.58;;;12.43;;
13933;SDS011;7039;52.168;9.866;2023-06-22T10:40:28;19.63;;;13.48;;
13933;SDS011;7039;52.168;9.866;2023-06-22T10:42:54;22.92;;;15.38;;
13933;SDS011;7039;52.168;9.866;2023-06-22T10:45:21;17.70;;;13.90;;
13933;SDS011;7039;52.168;9.866;2023-06-22T10:47:47;17.30;;;13.43;;
13933;SDS011;7039;52.168;9.866;2023-06-22T10:50:14;17.27;;;14.20;;
13933;SDS011;7039;52.168;9.866;2023-06-22T10:52:40;17.35;;;14.55;;
13933;SDS011;7039;52.168;9.866;2023-06-22T10:55:09;19.02;;;14.15;;
13933;SDS011;7039;52.168;9.866;2023-06-22T10:57:35;16.70;;;13.63;;
13933;SDS011;7039;52.168;9.866;2023-06-22T11:00:04;18.63;;;14.70;;
13933;SDS011;7039;52.168;9.866;2023-06-22T11:02:33;21.52;;;17.50;;
13933;SDS011;7039;52.168;9.866;2023-06-22T11:04:59;17.90;;;14.82;;
13933;SDS011;7039;52.168;9.866;2023-06-22T11:07:26;16.65;;;13.65;;
13933;SDS011;7039;52.168;9.866;2023-06-22T11:09:53;23.98;;;18.58;;
13933;SDS011;7039;52.168;9.866;2023-06-22T11:12:21;20.00;;;15.73;;
13933;SDS011;7039;52.168;9.866;2023-06-22T11:14:48;22.23;;;16.35;;
13933;SDS011;7039;52.168;9.866;2023-06-22T11:17:16;19.95;;;16.67;;
13933;SDS011;7039;52.168;9.866;2023-06-22T11:19:43;17.80;;;15.80;;
13933;SDS011;7039;52.168;9.866;2023-06-22T11:22:10;18.88;;;16.00;;
13933;SDS011;7039;52.168;9.866;2023-06-22T11:24:36;19.48;;;17.33;;
13933;SDS011;7039;52.168;9.866;2023-06-22T11:27:03;23.10;;;15.57;;
13933;SDS011;7039;52.168;9.866;2023-06-22T11:29:31;20.65;;;15.73;;
13933;SDS011;7039;52.168;9.866;2023-06-22T11:31:57;19.65;;;14.57;;
13933;SDS011;7039;52.168;9.866;2023-06-22T11:34:24;16.40;;;14.70;;
13933;SDS011;7039;52.168;9.866;2023-06-22T11:36:51;18.60;;;16.55;;
13933;SDS011;7039;52.168;9.866;2023-06-22T11:39:17;20.08;;;17.00;;
13933;SDS011;7039;52.168;9.866;2023-06-22T11:41:43;18.33;;;16.33;;
13933;SDS011;7039;52.168;9.866;2023-06-22T11:44:10;18.48;;;15.45;;
13933;SDS011;7039;52.168;9.866;2023-06-22T11:46:38;17.95;;;14.55;;
13933;SDS011;7039;52.168;9.866;2023-06-22T11:49:04;16.25;;;14.65;;
13933;SDS011;7039;52.168;9.866;2023-06-22T11:51:31;17.70;;;14.18;;
13933;SDS011;7039;52.168;9.866;2023-06-22T11:53:57;16.70;;;15.10;;
13933;SDS011;7039;52.168;9.866;2023-06-22T11:56:24;20.92;;;14.82;;
13933;SDS011;7039;52.168;9.866;2023-06-22T11:58:50;19.88;;;14.88;;
13933;SDS011;7039;52.168;9.866;2023-06-22T12:01:17;16.10;;;14.50;;
13933;SDS011;7039;52.168;9.866;2023-06-22T12:03:44;20.52;;;16.63;;
13933;SDS011;7039;52.168;9.866;2023-06-22T12:06:11;19.52;;;14.40;;
13933;SDS011;7039;52.168;9.866;2023-06-22T12:08:37;19.77;;;13.98;;
13933;SDS011;7039;52.168;9.866;2023-06-22T12:11:04;16.90;;;14.07;;
13933;SDS011;7039;52.168;9.866;2023-06-22T12:13:30;14.70;;;13.27;;
13933;SDS011;7039;52.168;9.866;2023-06-22T12:15:57;13.98;;;12.57;;
13933;SDS011;7039;52.168;9.866;2023-06-22T12:18:23;13.27;;;12.05;;
13933;SDS011;7039;52.168;9.866;2023-06-22T12:20:51;15.20;;;12.80;;
13933;SDS011;7039;52.168;9.866;2023-06-22T12:23:18;14.45;;;12.95;;
13933;SDS011;7039;52.168;9.866;2023-06-22T12:25:45;14.98;;;13.52;;
13933;SDS011;7039;52.168;9.866;2023-06-22T12:28:11;14.63;;;13.15;;
13933;SDS011;7039;52.168;9.866;2023-06-22T12:30:38;14.85;;;13.35;;
13933;SDS011;7039;52.168;9.866;2023-06-22T12:33:04;13.02;;;11.82;;
13933;SDS011;7039;52.168;9.866;2023-06-22T12:35:31;13.10;;;11.75;;
13933;SDS011;7039;52.168;9.866;2023-06-22T12:37:59;13.98;;;11.82;;
13933;SDS011;7039;52.168;9.866;2023-06-22T12:40:25;16.02;;;12.90;;
13933;SDS011;7039;52.168;9.866;2023-06-22T12:42:52;14.73;;;13.13;;
13933;SDS011;7039;52.168;9.866;2023-06-22T12:45:18;16.80;;;12.57;;
13933;SDS011;7039;52.168;9.866;2023-06-22T12:47:46;15.80;;;14.20;;
13933;SDS011;7039;52.168;9.866;2023-06-22T12:50:15;14.30;;;12.80;;
13933;SDS011;7039;52.168;9.866;2023-06-22T12:52:41;14.10;;;12.75;;
13933;SDS011;7039;52.168;9.866;2023-06-22T12:55:09;14.45;;;12.98;;
13933;SDS011;7039;52.168;9.866;2023-06-22T12:57:36;15.95;;;14.25;;
13933;SDS011;7039;52.168;9.866;2023-06-22T13:00:02;14.55;;;13.15;;
13933;SDS011;7039;52.168;9.866;2023-06-22T13:02:30;17.65;;;13.20;;
13933;SDS011;7039;52.168;9.866;2023-06-22T13:04:56;15.43;;;13.95;;
13933;SDS011;7039;52.168;9.866;2023-06-22T13:07:23;15.55;;;14.05;;
13933;SDS011;7039;52.168;9.866;2023-06-22T13:09:49;14.27;;;12.90;;
13933;SDS011;7039;52.168;9.866;2023-06-22T13:12:19;15.82;;;14.25;;
13933;SDS011;7039;52.168;9.866;2023-06-22T13:14:46;14.85;;;13.40;;
13933;SDS011;7039;52.168;9.866;2023-06-22T13:17:12;12.85;;;11.65;;
13933;SDS011;7039;52.168;9.866;2023-06-22T13:19:39;12.98;;;11.77;;
13933;SDS011;7039;52.168;9.866;2023-06-22T13:22:09;13.50;;;11.35;;
13933;SDS011;7039;52.168;9.866;2023-06-22T13:24:52;12.05;;;10.95;;
13933;SDS011;7039;52.168;9.866;2023-06-22T13:27:20;11.82;;;10.57;;
13933;SDS011;7039;52.168;9.866;2023-06-22T13:29:46;13.73;;;11.32;;
13933;SDS011;7039;52.168;9.866;2023-06-22T13:32:13;15.80;;;11.45;;
13933;SDS011;7039;52.168;9.866;2023-06-22T13:34:39;17.30;;;10.70;;
13933;SDS011;7039;52.168;9.866;2023-06-22T13:37:06;15.15;;;11.13;;
13933;SDS011;7039;52.168;9.866;2023-06-22T13:39:32;12.32;;;11.00;;
13933;SDS011;7039;52.168;9.866;2023-06-22T13:41:59;16.23;;;10.80;;
13933;SDS011;7039;52.168;9.866;2023-06-22T13:44:26;13.30;;;11.02;;
13933;SDS011;7039;52.168;9.866;2023-06-22T13:46:54;13.80;;;10.95;;
13933;SDS011;7039;52.168;9.866;2023-06-22T13:49:20;17.83;;;11.07;;
13933;SDS011;7039;52.168;9.866;2023-06-22T13:51:47;13.00;;;11.70;;
13933;SDS011;7039;52.168;9.866;2023-06-22T13:54:14;12.55;;;11.25;;
13933;SDS011;7039;52.168;9.866;2023-06-22T13:56:41;12.65;;;11.45;;
13933;SDS011;7039;52.168;9.866;2023-06-22T13:59:07;13.18;;;11.73;;
13933;SDS011;7039;52.168;9.866;2023-06-22T14:01:36;14.30;;;12.15;;
13933;SDS011;7039;52.168;9.866;2023-06-22T14:04:04;12.88;;;11.20;;
13933;SDS011;7039;52.168;9.866;2023-06-22T14:06:30;12.30;;;11.00;;
13933;SDS011;7039;52.168;9.866;2023-06-22T14:08:56;12.07;;;10.93;;
13933;SDS011;7039;52.168;9.866;2023-06-22T14:11:24;12.88;;;11.50;;
13933;SDS011;7039;52.168;9.866;2023-06-22T14:13:50;14.20;;;12.80;;
13933;SDS011;7039;52.168;9.866;2023-06-22T14:16:17;12.90;;;11.23;;
13933;SDS011;7039;52.168;9.866;2023-06-22T14:18:45;15.38;;;11.20;;
13933;SDS011;7039;52.168;9.866;2023-06-22T14:21:12;11.98;;;10.80;;
13933;SDS011;7039;52.168;9.866;2023-06-22T14:23:38;12.32;;;11.23;;
13933;SDS011;7039;52.168;9.866;2023-06-22T14:26:05;11.27;;;10.18;;
13933;SDS011;7039;52.168;9.866;2023-06-22T14:28:31;12.00;;;10.90;;
13933;SDS011;7039;52.168;9.866;2023-06-22T14:30:57;12.57;;;10.48;;
13933;SDS011;7039;52.168;9.866;2023-06-22T14:33:24;12.38;;;11.13;;
13933;SDS011;7039;52.168;9.866;2023-06-22T14:35:52;11.73;;;10.63;;